Time;durP1;ratioP1;P1;durP2;ratioP2;P2;SDS_P1;SDS_P2;PMS_P1;PMS_P2;Temp;Humidity;BMP_temperature;BMP_pressure;BME280_temperature;BME280_humidity;BME280_pressure;Samples;Min_cycle;Max_cycle;Signal;HPM_P1;HPM_P2
2023/03/18 00:02:23;;;;;;;5.93;3.50;;;9.60;99.90;;;;;;4968593;28;20283;-79
2023/03/18 00:04:51;;;;;;;4.10;3.23;;;9.60;99.90;;;;;;4967805;28;20219;-79
2023/03/18 00:07:18;;;;;;;8.53;3.23;;;9.60;99.90;;;;;;4969725;28;20667;-79
2023/03/18 00:09:46;;;;;;;4.00;3.40;;;9.60;99.90;;;;;;4969945;28;20777;-79
2023/03/18 00:12:13;;;;;;;4.63;3.20;;;9.60;99.90;;;;;;4969485;28;20226;-79
2023/03/18 00:14:40;;;;;;;6.17;3.10;;;9.60;99.90;;;;;;4969527;28;20238;-79
2023/03/18 00:17:08;;;;;;;5.43;3.17;;;9.60;99.90;;;;;;4967450;28;20246;-79
2023/03/18 00:19:35;;;;;;;3.67;3.23;;;9.60;99.90;;;;;;4970781;28;20259;-79
2023/03/18 00:22:03;;;;;;;4.17;3.00;;;9.50;99.90;;;;;;4967122;28;20896;-79
2023/03/18 00:24:30;;;;;;;3.93;3.07;;;9.50;99.90;;;;;;4966266;28;20955;-80
2023/03/18 00:26:57;;;;;;;4.90;2.90;;;9.50;99.90;;;;;;4966926;28;20223;-79
2023/03/18 00:29:24;;;;;;;4.50;3.00;;;9.50;99.90;;;;;;4966516;28;20219;-80
2023/03/18 00:31:51;;;;;;;4.73;2.73;;;9.50;99.90;;;;;;4966070;28;20313;-79
2023/03/18 00:34:20;;;;;;;4.00;3.20;;;9.50;99.90;;;;;;4967448;28;20250;-79
2023/03/18 00:36:49;;;;;;;4.07;3.40;;;9.50;99.90;;;;;;4964835;28;20231;-79
2023/03/18 00:39:24;;;;;;;4.63;3.20;;;9.40;99.90;;;;;;4967504;28;20677;-80
2023/03/18 00:41:52;;;;;;;4.43;2.93;;;9.40;99.90;;;;;;4966084;28;20233;-78
2023/03/18 00:44:19;;;;;;;4.70;2.90;;;9.40;99.90;;;;;;4963505;28;20236;-78
2023/03/18 00:46:46;;;;;;;3.00;2.70;;;9.50;99.90;;;;;;4959841;28;20234;-79
2023/03/18 00:49:14;;;;;;;3.90;3.00;;;9.40;99.90;;;;;;4968167;28;20774;-80
2023/03/18 00:51:41;;;;;;;6.10;2.87;;;9.50;99.90;;;;;;4967143;28;20237;-80
2023/03/18 00:54:11;;;;;;;3.60;3.00;;;9.40;99.90;;;;;;4969010;28;20617;-79
2023/03/18 00:56:40;;;;;;;5.53;3.10;;;9.50;99.90;;;;;;4966362;28;20309;-80
2023/03/18 00:59:08;;;;;;;5.80;3.37;;;9.50;99.90;;;;;;4964770;28;20222;-80
2023/03/18 01:01:36;;;;;;;4.20;3.00;;;9.40;99.90;;;;;;4975196;28;20234;-79
2023/03/18 01:04:03;;;;;;;4.63;2.93;;;9.40;99.90;;;;;;4968150;28;20222;-80
2023/03/18 01:06:33;;;;;;;5.73;2.83;;;9.40;99.90;;;;;;4963084;28;20234;-78
2023/03/18 01:09:01;;;;;;;4.50;2.70;;;9.40;99.90;;;;;;4966406;28;20273;-78
2023/03/18 01:11:29;;;;;;;3.60;2.93;;;9.30;99.90;;;;;;4971420;28;20329;-78
2023/03/18 01:13:58;;;;;;;3.87;3.00;;;9.40;99.90;;;;;;4964632;28;20889;-79
2023/03/18 01:16:25;;;;;;;5.07;2.73;;;9.30;99.90;;;;;;4966487;28;20227;-79
2023/03/18 01:18:52;;;;;;;4.07;2.80;;;9.30;99.90;;;;;;4966536;28;20242;-79
2023/03/18 01:21:19;;;;;;;4.27;3.00;;;9.30;99.90;;;;;;4968113;28;21066;-79
2023/03/18 01:23:52;;;;;;;4.40;3.07;;;9.30;99.90;;;;;;4964818;28;20298;-79
2023/03/18 01:26:19;;;;;;;3.67;2.77;;;9.30;99.90;;;;;;4964493;28;20219;-79
2023/03/18 01:28:47;;;;;;;4.40;2.97;;;9.30;99.90;;;;;;4964799;28;21645;-80
2023/03/18 01:31:15;;;;;;;4.37;3.20;;;9.30;99.90;;;;;;4966466;28;21050;-79
2023/03/18 01:33:44;;;;;;;4.87;3.30;;;9.30;99.90;;;;;;4966771;28;20783;-80
2023/03/18 01:36:11;;;;;;;3.97;2.80;;;9.30;99.90;;;;;;4967035;28;20229;-80
2023/03/18 01:38:39;;;;;;;4.23;2.87;;;9.30;99.90;;;;;;4963066;28;20227;-81
2023/03/18 01:41:12;;;;;;;4.73;3.10;;;9.20;99.90;;;;;;4966484;28;20305;-79
2023/03/18 01:43:42;;;;;;;4.33;2.60;;;9.20;99.90;;;;;;4962371;28;20223;-80
2023/03/18 01:46:37;;;;;;;3.17;2.47;;;9.20;99.90;;;;;;4963376;28;20219;-79
2023/03/18 01:49:11;;;;;;;4.17;2.50;;;9.20;99.90;;;;;;4965661;28;20221;-80
2023/03/18 01:51:40;;;;;;;4.63;3.20;;;9.20;99.90;;;;;;4964440;28;20239;-79
2023/03/18 01:54:09;;;;;;;4.10;2.80;;;9.20;99.90;;;;;;4961786;28;20656;-79
2023/03/18 01:56:38;;;;;;;3.87;2.83;;;9.20;99.90;;;;;;4964347;28;20231;-79
2023/03/18 01:59:07;;;;;;;5.63;3.00;;;9.10;99.90;;;;;;4966180;28;20210;-79
2023/03/18 02:01:39;;;;;;;4.13;2.77;;;9.10;99.90;;;;;;4962179;28;20235;-79
2023/03/18 02:04:09;;;;;;;4.30;3.10;;;9.10;99.90;;;;;;4963921;28;20219;-79
2023/03/18 02:06:38;;;;;;;4.20;3.17;;;9.10;99.90;;;;;;4963735;28;20246;-80
2023/03/18 02:09:06;;;;;;;5.10;3.30;;;9.10;99.90;;;;;;4966712;28;20231;-79
2023/03/18 02:11:37;;;;;;;5.47;3.30;;;9.10;99.90;;;;;;4966650;28;20265;-79
2023/03/18 02:14:05;;;;;;;4.53;3.17;;;9.10;99.90;;;;;;4962377;28;20636;-79
2023/03/18 02:16:40;;;;;;;4.33;2.90;;;9.10;99.90;;;;;;4966213;28;20250;-79
2023/03/18 02:19:15;;;;;;;4.40;2.70;;;9.10;99.90;;;;;;4962521;28;20253;-79
2023/03/18 02:21:51;;;;;;;5.03;3.00;;;9.10;99.90;;;;;;4966369;28;20257;-79
2023/03/18 02:24:27;;;;;;;4.03;2.97;;;9.00;99.90;;;;;;4963286;28;20223;-79
2023/03/18 02:27:00;;;;;;;3.10;2.80;;;9.00;99.90;;;;;;4961440;28;20234;-79
2023/03/18 02:29:36;;;;;;;5.37;3.07;;;9.00;99.90;;;;;;4961815;28;20226;-79
2023/03/18 02:32:08;;;;;;;3.27;2.93;;;9.00;99.90;;;;;;4978845;28;20222;-80
2023/03/18 02:34:37;;;;;;;4.87;2.77;;;9.00;99.90;;;;;;4962695;28;20281;-81
2023/03/18 02:37:06;;;;;;;4.00;2.90;;;9.10;99.90;;;;;;4959855;28;20281;-79
2023/03/18 02:39:34;;;;;;;3.83;3.13;;;9.00;99.90;;;;;;4963317;28;20344;-80
2023/03/18 02:42:01;;;;;;;3.63;2.63;;;9.00;99.90;;;;;;4965378;28;20647;-79
2023/03/18 02:44:29;;;;;;;4.43;2.77;;;9.00;99.90;;;;;;4960585;28;20241;-80
2023/03/18 02:47:37;;;;;;;3.43;2.60;;;8.90;99.90;;;;;;4960498;28;20951;-79
2023/03/18 02:50:05;;;;;;;3.87;2.90;;;9.00;99.90;;;;;;4963932;28;20226;-79
2023/03/18 02:52:32;;;;;;;5.57;3.07;;;9.00;99.90;;;;;;4965905;28;20250;-79
2023/03/18 02:55:00;;;;;;;4.93;3.00;;;9.00;99.90;;;;;;4963602;28;20306;-79
2023/03/18 02:57:28;;;;;;;4.20;2.80;;;9.00;99.90;;;;;;4963291;28;20315;-79
2023/03/18 02:59:56;;;;;;;4.30;3.17;;;9.00;99.90;;;;;;4964152;28;20904;-78
2023/03/18 03:02:23;;;;;;;4.87;3.00;;;9.00;99.90;;;;;;4961854;28;20226;-77
2023/03/18 03:04:51;;;;;;;4.23;2.53;;;9.00;99.90;;;;;;4974125;28;20927;-77
2023/03/18 03:07:19;;;;;;;3.43;2.97;;;9.00;99.90;;;;;;4963905;28;20215;-77
2023/03/18 03:09:51;;;;;;;3.87;2.90;;;9.00;99.90;;;;;;4960566;28;20242;-77
2023/03/18 03:12:19;;;;;;;4.17;2.63;;;9.00;99.90;;;;;;4958729;28;20705;-77
2023/03/18 03:14:51;;;;;;;4.33;3.00;;;9.00;99.90;;;;;;4959187;28;20262;-76
2023/03/18 03:17:18;;;;;;;3.80;2.80;;;9.00;99.90;;;;;;4960843;28;20219;-77
2023/03/18 03:19:45;;;;;;;3.73;2.80;;;9.00;99.90;;;;;;4958225;28;20277;-77
2023/03/18 03:22:16;;;;;;;4.50;3.00;;;9.00;99.90;;;;;;4959817;28;20429;-77
2023/03/18 03:24:43;;;;;;;4.30;2.90;;;9.00;99.90;;;;;;4958228;28;20239;-78
2023/03/18 03:27:11;;;;;;;5.50;2.60;;;9.00;99.90;;;;;;4964435;28;20234;-77
2023/03/18 03:29:38;;;;;;;4.90;2.80;;;9.00;99.90;;;;;;4961395;28;20254;-78
2023/03/18 03:32:05;;;;;;;3.67;3.00;;;9.00;99.90;;;;;;4956711;28;20254;-77
2023/03/18 03:34:32;;;;;;;3.23;2.73;;;9.00;99.90;;;;;;4961548;28;20218;-77
2023/03/18 03:36:59;;;;;;;5.13;3.00;;;9.00;99.90;;;;;;4957961;28;20777;-77
2023/03/18 03:39:27;;;;;;;3.27;2.70;;;9.00;99.90;;;;;;4961253;28;20627;-77
2023/03/18 03:41:54;;;;;;;6.17;2.80;;;8.90;99.90;;;;;;4959480;28;20245;-77
2023/03/18 03:44:21;;;;;;;3.17;2.50;;;9.00;99.90;;;;;;4960068;28;20238;-77
2023/03/18 03:46:49;;;;;;;4.37;2.67;;;8.90;99.90;;;;;;4960980;28;20219;-77
2023/03/18 03:49:17;;;;;;;5.27;3.03;;;8.90;99.90;;;;;;4957927;28;20242;-78
2023/03/18 03:51:44;;;;;;;6.77;3.10;;;8.90;99.90;;;;;;4958284;28;20870;-78
2023/03/18 03:54:12;;;;;;;4.07;3.03;;;8.90;99.90;;;;;;4959761;28;20231;-77
2023/03/18 03:56:41;;;;;;;4.80;2.83;;;8.90;99.90;;;;;;4960856;28;20246;-77
2023/03/18 03:59:09;;;;;;;5.63;3.27;;;8.80;99.90;;;;;;4959897;28;20219;-78
2023/03/18 04:01:55;;;;;;;5.47;3.47;;;8.80;99.90;;;;;;4960910;28;20234;-77
2023/03/18 04:04:23;;;;;;;4.30;3.23;;;8.80;99.90;;;;;;4956224;28;20760;-78
2023/03/18 04:06:50;;;;;;;5.67;3.20;;;8.80;99.90;;;;;;4982799;28;20647;-77
2023/03/18 04:09:17;;;;;;;3.67;3.00;;;8.80;99.90;;;;;;4962922;28;20226;-78
2023/03/18 04:11:45;;;;;;;3.90;3.10;;;8.80;99.90;;;;;;4966162;28;20230;-78
2023/03/18 04:14:11;;;;;;;4.60;3.20;;;8.70;99.90;;;;;;4964577;28;20265;-78
2023/03/18 04:16:39;;;;;;;4.00;3.40;;;8.70;99.90;;;;;;4964317;28;20289;-78
2023/03/18 04:19:06;;;;;;;6.27;3.63;;;8.70;99.90;;;;;;4964937;28;20958;-77
2023/03/18 04:21:33;;;;;;;6.17;3.70;;;8.70;99.90;;;;;;4980454;28;20242;-77
2023/03/18 04:24:02;;;;;;;8.13;3.23;;;8.60;99.90;;;;;;4978988;28;20247;-77
2023/03/18 04:26:30;;;;;;;6.47;3.30;;;8.60;99.90;;;;;;4963871;28;20230;-77
2023/03/18 04:29:02;;;;;;;8.27;3.50;;;8.60;99.90;;;;;;4977821;28;20235;-77
2023/03/18 04:31:30;;;;;;;6.43;3.20;;;8.60;99.90;;;;;;4963348;28;20253;-78
2023/03/18 04:33:59;;;;;;;4.33;3.63;;;8.50;99.90;;;;;;4962554;28;20268;-78
2023/03/18 04:36:27;;;;;;;4.00;3.50;;;8.50;99.90;;;;;;4961273;28;20230;-78
2023/03/18 04:38:55;;;;;;;5.07;3.50;;;8.50;99.90;;;;;;4978460;28;20235;-77
2023/03/18 04:41:23;;;;;;;4.73;3.30;;;8.50;99.90;;;;;;4963910;28;20232;-77
2023/03/18 04:43:51;;;;;;;6.63;3.73;;;8.50;99.90;;;;;;4961846;28;20758;-77
2023/03/18 04:46:19;;;;;;;5.63;3.63;;;8.50;99.90;;;;;;4963790;28;20229;-77
2023/03/18 04:48:48;;;;;;;7.80;4.40;;;8.50;99.90;;;;;;4962101;28;20230;-77
2023/03/18 04:51:15;;;;;;;6.67;4.03;;;8.50;99.90;;;;;;4957528;28;21405;-77
2023/03/18 04:53:42;;;;;;;5.40;3.70;;;8.50;99.90;;;;;;4965120;28;20222;-78
2023/03/18 04:56:10;;;;;;;9.53;4.57;;;8.50;99.90;;;;;;4965081;28;20316;-77
2023/03/18 04:58:44;;;;;;;7.40;3.90;;;8.40;99.90;;;;;;4964708;28;20786;-77
2023/03/18 05:01:16;;;;;;;6.37;3.93;;;8.40;99.90;;;;;;4961836;28;20235;-78
2023/03/18 05:03:44;;;;;;;6.00;4.13;;;8.40;99.90;;;;;;4967091;28;20246;-78
2023/03/18 05:06:21;;;;;;;6.77;3.83;;;8.40;99.90;;;;;;4965154;28;20250;-78
2023/03/18 05:08:55;;;;;;;7.10;4.47;;;8.40;99.90;;;;;;4963749;28;20833;-78
2023/03/18 05:11:24;;;;;;;8.13;4.17;;;8.40;99.90;;;;;;4962379;28;20237;-78
2023/03/18 05:13:51;;;;;;;6.97;4.50;;;8.40;99.90;;;;;;4963407;28;20233;-78
2023/03/18 05:16:19;;;;;;;6.63;4.57;;;8.40;99.90;;;;;;4963528;28;20824;-78
2023/03/18 05:18:50;;;;;;;8.87;4.80;;;8.40;99.90;;;;;;4967358;28;20233;-78
2023/03/18 05:21:17;;;;;;;8.03;4.70;;;8.30;99.90;;;;;;4957523;28;20234;-78
2023/03/18 05:23:45;;;;;;;8.40;4.70;;;8.30;99.90;;;;;;4964075;28;20234;-77
2023/03/18 05:26:12;;;;;;;9.73;5.00;;;8.30;99.90;;;;;;4961401;28;20232;-77
2023/03/18 05:28:40;;;;;;;8.10;4.80;;;8.30;99.90;;;;;;4961170;28;20233;-78
2023/03/18 05:31:19;;;;;;;9.17;5.10;;;8.30;99.90;;;;;;4961330;28;20700;-79
2023/03/18 05:33:46;;;;;;;5.90;4.63;;;8.30;99.90;;;;;;4960647;28;20237;-79
2023/03/18 05:36:15;;;;;;;8.57;5.13;;;8.30;99.90;;;;;;4960228;28;20226;-79
2023/03/18 05:38:57;;;;;;;9.90;5.67;;;8.30;99.90;;;;;;4961445;28;20225;-79
2023/03/18 05:41:25;;;;;;;10.63;5.93;;;8.30;99.90;;;;;;4965123;28;20322;-79
2023/03/18 05:43:52;;;;;;;9.50;6.00;;;8.30;99.90;;;;;;4961836;28;20245;-82
2023/03/18 05:46:19;;;;;;;9.43;6.33;;;8.30;99.90;;;;;;4963345;28;20221;-80
2023/03/18 05:48:56;;;;;;;10.03;6.10;;;8.20;99.90;;;;;;4962839;28;20229;-79
2023/03/18 05:51:27;;;;;;;10.00;7.00;;;8.30;99.90;;;;;;4962129;28;20308;-79
2023/03/18 05:53:55;;;;;;;10.13;6.57;;;8.20;99.90;;;;;;4965278;28;20723;-79
2023/03/18 05:56:26;;;;;;;10.93;7.00;;;8.20;99.90;;;;;;4965837;28;20230;-78
2023/03/18 05:58:57;;;;;;;13.73;7.00;;;8.20;99.90;;;;;;4961837;28;20229;-78
2023/03/18 06:01:31;;;;;;;10.50;7.40;;;8.20;99.90;;;;;;4960345;28;20223;-78
2023/03/18 06:03:59;;;;;;;10.40;7.60;;;8.30;99.90;;;;;;4960468;28;20289;-79
2023/03/18 06:06:27;;;;;;;15.20;7.90;;;8.20;99.90;;;;;;4963911;28;20230;-78
2023/03/18 06:08:55;;;;;;;11.83;8.20;;;8.30;99.90;;;;;;4963638;28;20246;-78
2023/03/18 06:11:23;;;;;;;9.93;7.57;;;8.30;99.90;;;;;;4965332;28;20234;-79
2023/03/18 06:13:51;;;;;;;13.83;7.43;;;8.30;99.90;;;;;;4964445;28;20229;-78
2023/03/18 06:16:17;;;;;;;11.47;7.60;;;8.40;99.90;;;;;;4959598;28;20618;-79
2023/03/18 06:18:44;;;;;;;11.10;7.20;;;8.40;99.90;;;;;;4962278;28;20303;-77
2023/03/18 06:21:14;;;;;;;13.47;7.77;;;8.50;99.90;;;;;;4977072;28;20590;-79
2023/03/18 06:23:43;;;;;;;14.57;7.83;;;8.50;99.90;;;;;;4961217;28;20222;-79
2023/03/18 06:26:10;;;;;;;12.70;8.43;;;8.50;99.90;;;;;;4961265;28;20230;-78
2023/03/18 06:28:45;;;;;;;12.40;8.10;;;8.60;99.90;;;;;;4961348;28;20700;-78
2023/03/18 06:31:14;;;;;;;14.63;7.67;;;8.60;99.90;;;;;;4963230;28;20265;-79
2023/03/18 06:33:41;;;;;;;11.90;8.30;;;8.60;99.90;;;;;;4963615;28;20222;-78
2023/03/18 06:36:10;;;;;;;11.80;7.77;;;8.60;99.90;;;;;;4962069;28;20218;-78
2023/03/18 06:38:43;;;;;;;14.50;8.07;;;8.70;99.90;;;;;;4957373;28;20219;-79
2023/03/18 06:41:12;;;;;;;10.33;7.63;;;8.70;99.90;;;;;;4970881;28;21139;-79
2023/03/18 06:43:46;;;;;;;13.97;8.93;;;8.80;99.90;;;;;;4960433;28;20230;-80
2023/03/18 06:46:14;;;;;;;25.13;16.50;;;8.80;99.90;;;;;;4957034;28;20211;-79
2023/03/18 06:48:44;;;;;;;15.30;9.43;;;8.80;99.90;;;;;;4981063;28;20446;-79
2023/03/18 06:51:13;;;;;;;14.40;10.30;;;8.80;99.90;;;;;;4963971;28;20223;-80
2023/03/18 06:53:43;;;;;;;13.23;8.97;;;8.90;99.90;;;;;;4958639;28;20234;-79
2023/03/18 06:56:14;;;;;;;14.87;9.67;;;8.90;99.90;;;;;;4978417;28;20226;-79
2023/03/18 06:58:52;;;;;;;15.50;10.03;;;8.90;99.90;;;;;;4980353;28;20309;-80
2023/03/18 07:01:19;;;;;;;15.87;11.27;;;9.00;99.90;;;;;;4949757;28;20239;-78
2023/03/18 07:03:48;;;;;;;11.87;8.80;;;9.00;99.90;;;;;;4961206;28;20222;-78
2023/03/18 07:06:15;;;;;;;13.93;9.30;;;9.10;99.90;;;;;;4968647;28;20230;-79
2023/03/18 07:08:44;;;;;;;12.37;8.87;;;9.10;99.90;;;;;;4966860;28;20232;-79
2023/03/18 07:11:11;;;;;;;12.50;8.90;;;9.10;99.90;;;;;;4967783;28;20309;-78
2023/03/18 07:13:41;;;;;;;11.63;8.60;;;9.20;99.90;;;;;;4967662;28;20285;-79
2023/03/18 07:16:15;;;;;;;14.03;9.37;;;9.20;99.90;;;;;;4966673;28;20245;-79
2023/03/18 07:18:42;;;;;;;11.90;9.07;;;9.30;99.90;;;;;;4969330;28;20243;-79
2023/03/18 07:21:10;;;;;;;14.40;8.93;;;9.30;99.90;;;;;;4968897;28;20223;-79
2023/03/18 07:23:37;;;;;;;11.77;8.80;;;9.30;99.90;;;;;;4968704;28;20281;-79
2023/03/18 07:26:05;;;;;;;12.90;8.57;;;9.40;99.90;;;;;;4970797;28;20819;-79
2023/03/18 07:28:32;;;;;;;11.83;9.23;;;9.40;99.90;;;;;;4959532;28;20241;-77
2023/03/18 07:30:59;;;;;;;15.17;9.37;;;9.40;99.90;;;;;;4962079;28;20230;-77
2023/03/18 07:33:26;;;;;;;11.17;8.53;;;9.50;99.90;;;;;;4963136;28;20223;-76
2023/03/18 07:35:53;;;;;;;12.00;9.10;;;9.60;99.90;;;;;;4956808;28;20233;-77
2023/03/18 07:38:19;;;;;;;14.10;8.67;;;9.60;99.90;;;;;;4957738;28;20235;-77
2023/03/18 07:40:47;;;;;;;14.63;9.03;;;9.70;99.90;;;;;;4959372;28;20760;-77
2023/03/18 07:43:16;;;;;;;12.97;8.73;;;9.80;99.90;;;;;;4963870;28;20223;-77
2023/03/18 07:45:43;;;;;;;12.53;8.80;;;9.80;99.90;;;;;;4965526;28;20470;-77
2023/03/18 07:48:09;;;;;;;13.60;9.30;;;9.90;99.90;;;;;;4967278;28;20724;-77
2023/03/18 07:50:36;;;;;;;11.67;8.27;;;10.00;99.90;;;;;;4967218;28;20433;-77
2023/03/18 07:53:03;;;;;;;12.40;8.87;;;10.10;99.90;;;;;;4966795;28;20230;-77
2023/03/18 07:55:30;;;;;;;12.07;8.37;;;10.20;99.90;;;;;;4960992;28;20238;-77
2023/03/18 07:57:57;;;;;;;15.03;8.97;;;10.30;99.90;;;;;;4966929;28;20226;-76
2023/03/18 08:00:26;;;;;;;13.63;9.27;;;10.40;99.90;;;;;;4968475;28;20321;-77
2023/03/18 08:02:52;;;;;;;12.50;8.10;;;10.50;99.90;;;;;;4962243;28;20283;-77
2023/03/18 08:05:20;;;;;;;12.23;9.27;;;10.60;99.90;;;;;;4964734;28;20239;-77
2023/03/18 08:07:48;;;;;;;12.93;9.03;;;10.70;99.90;;;;;;4966436;28;20386;-77
2023/03/18 08:10:15;;;;;;;12.23;8.60;;;10.80;99.90;;;;;;4964227;28;20778;-77
2023/03/18 08:12:42;;;;;;;13.37;8.80;;;10.90;99.90;;;;;;4961491;28;20267;-77
2023/03/18 08:15:10;;;;;;;13.40;9.10;;;11.00;99.90;;;;;;4967763;28;20824;-77
2023/03/18 08:17:38;;;;;;;10.83;8.20;;;11.10;99.90;;;;;;4968258;28;20291;-77
2023/03/18 08:20:06;;;;;;;11.50;8.20;;;11.20;99.90;;;;;;4963138;28;20237;-77
2023/03/18 08:22:33;;;;;;;15.93;10.33;;;11.30;99.90;;;;;;4967589;28;20230;-77
2023/03/18 08:25:00;;;;;;;16.30;10.80;;;11.30;99.90;;;;;;4967667;28;20229;-77
2023/03/18 08:27:26;;;;;;;14.27;10.17;;;11.30;99.90;;;;;;4966746;28;20653;-76
2023/03/18 08:29:53;;;;;;;13.57;9.60;;;11.30;99.90;;;;;;4964867;28;20237;-77
2023/03/18 08:32:20;;;;;;;15.27;9.60;;;11.30;99.90;;;;;;4962857;28;20228;-77
2023/03/18 08:34:48;;;;;;;15.40;9.27;;;11.30;99.90;;;;;;4966741;28;20316;-77
2023/03/18 08:37:15;;;;;;;11.97;8.80;;;11.30;99.90;;;;;;4966428;28;20308;-77
2023/03/18 08:39:43;;;;;;;13.67;9.40;;;11.30;99.90;;;;;;4965675;28;20237;-77
2023/03/18 08:42:10;;;;;;;14.67;9.60;;;11.30;99.90;;;;;;4966916;28;20241;-77
2023/03/18 08:44:39;;;;;;;14.50;9.13;;;11.30;99.90;;;;;;4967765;28;20299;-77
2023/03/18 08:47:07;;;;;;;13.00;9.27;;;11.30;99.90;;;;;;4965447;28;20226;-77
2023/03/18 08:49:33;;;;;;;14.80;9.17;;;11.40;99.90;;;;;;4966108;28;20231;-77
2023/03/18 08:52:01;;;;;;;14.50;9.63;;;11.40;99.90;;;;;;4965586;28;20307;-77
2023/03/18 08:54:28;;;;;;;16.70;10.07;;;11.40;99.90;;;;;;4967096;28;20242;-78
2023/03/18 08:56:56;;;;;;;15.50;8.40;;;11.40;99.90;;;;;;4965402;28;20294;-77
2023/03/18 08:59:22;;;;;;;12.87;9.60;;;11.50;99.90;;;;;;4963702;28;20650;-77
2023/03/18 09:01:49;;;;;;;17.40;9.80;;;11.50;99.90;;;;;;4966812;28;20239;-77
2023/03/18 09:04:16;;;;;;;12.87;9.63;;;11.60;99.90;;;;;;4965822;28;20232;-77
2023/03/18 09:06:43;;;;;;;14.73;9.60;;;11.60;99.90;;;;;;4961851;28;20218;-77
2023/03/18 09:09:11;;;;;;;12.40;8.90;;;11.60;99.90;;;;;;4963869;28;20809;-77
2023/03/18 09:11:38;;;;;;;12.33;9.53;;;11.60;99.90;;;;;;4966459;28;20301;-77
2023/03/18 09:14:05;;;;;;;11.93;9.07;;;11.60;99.90;;;;;;4963353;28;20231;-77
2023/03/18 09:16:32;;;;;;;13.20;9.20;;;11.50;99.90;;;;;;4967186;28;20304;-78
2023/03/18 09:18:59;;;;;;;12.43;9.47;;;11.60;99.90;;;;;;4965721;28;20308;-77
2023/03/18 09:21:25;;;;;;;12.77;9.17;;;11.50;99.90;;;;;;4965199;28;20234;-77
2023/03/18 09:23:53;;;;;;;12.33;8.17;;;11.50;99.90;;;;;;4965948;28;20318;-77
2023/03/18 09:26:21;;;;;;;13.73;8.53;;;11.50;99.90;;;;;;4963239;28;20225;-77
2023/03/18 09:28:47;;;;;;;11.80;9.27;;;11.50;99.90;;;;;;4962457;28;20250;-77
2023/03/18 09:31:15;;;;;;;14.03;8.93;;;11.50;99.90;;;;;;4963286;28;20232;-77
2023/03/18 09:33:42;;;;;;;14.97;9.60;;;11.50;99.90;;;;;;4962941;28;20232;-77
2023/03/18 09:36:10;;;;;;;10.93;8.27;;;11.50;99.90;;;;;;4961291;28;20235;-77
2023/03/18 09:38:36;;;;;;;12.27;8.70;;;11.50;99.90;;;;;;4967524;28;20238;-77
2023/03/18 09:41:15;;;;;;;14.83;9.40;;;11.50;99.90;;;;;;4964733;28;20223;-77
2023/03/18 09:43:57;;;;;;;13.00;9.13;;;11.50;99.90;;;;;;4963432;28;20333;-77
2023/03/18 09:46:32;;;;;;;15.40;8.87;;;11.50;99.90;;;;;;4964270;28;20229;-77
2023/03/18 09:49:21;;;;;;;15.03;9.67;;;11.50;99.90;;;;;;4963631;28;20226;-77
2023/03/18 09:51:57;;;;;;;14.90;10.00;;;11.50;99.90;;;;;;4965615;28;20595;-76
2023/03/18 09:54:32;;;;;;;13.53;9.57;;;11.50;99.90;;;;;;4961759;28;21018;-76
2023/03/18 09:56:59;;;;;;;14.33;10.03;;;11.50;99.90;;;;;;4977399;28;20400;-77
2023/03/18 09:59:36;;;;;;;13.27;9.60;;;11.50;99.90;;;;;;4966995;28;20309;-76
2023/03/18 10:02:06;;;;;;;12.33;9.70;;;11.50;99.90;;;;;;4963264;28;20280;-77
2023/03/18 10:04:41;;;;;;;14.53;10.13;;;11.50;99.90;;;;;;4963045;28;20262;-77
2023/03/18 10:07:13;;;;;;;15.90;10.67;;;11.50;99.90;;;;;;4964582;28;20275;-77
2023/03/18 10:09:43;;;;;;;13.07;9.43;;;11.60;99.90;;;;;;4963395;28;20291;-78
2023/03/18 10:12:16;;;;;;;17.10;10.80;;;11.70;99.90;;;;;;4962777;28;20806;-77
2023/03/18 10:14:49;;;;;;;16.10;9.93;;;11.80;99.90;;;;;;4966267;28;20747;-76
2023/03/18 10:17:19;;;;;;;16.27;9.67;;;11.90;99.90;;;;;;4962392;28;20225;-76
2023/03/18 10:19:51;;;;;;;13.87;9.80;;;12.00;99.90;;;;;;4965656;28;20248;-77
2023/03/18 10:22:31;;;;;;;13.77;9.27;;;12.20;99.90;;;;;;4960556;28;20252;-76
2023/03/18 10:25:06;;;;;;;13.93;9.63;;;12.40;99.90;;;;;;4962370;28;20239;-76
2023/03/18 10:27:44;;;;;;;14.40;9.60;;;12.60;99.90;;;;;;4963987;28;20236;-76
2023/03/18 10:30:26;;;;;;;12.80;9.27;;;12.80;99.90;;;;;;4966132;28;20229;-77
2023/03/18 10:33:02;;;;;;;13.33;8.57;;;13.10;99.90;;;;;;4963879;28;20327;-77
2023/03/18 10:35:35;;;;;;;13.03;7.87;;;13.50;99.90;;;;;;4964301;28;20229;-78
2023/03/18 10:38:04;;;;;;;10.17;7.50;;;13.80;99.90;;;;;;4962932;28;20230;-77
2023/03/18 10:40:37;;;;;;;11.77;7.43;;;14.10;99.90;;;;;;4964762;28;20225;-77
2023/03/18 10:43:04;;;;;;;10.63;6.53;;;14.20;99.90;;;;;;4964977;28;20237;-77
2023/03/18 10:45:34;;;;;;;9.10;6.70;;;14.40;99.90;;;;;;4965402;28;20247;-77
2023/03/18 10:48:07;;;;;;;10.97;7.60;;;14.50;99.90;;;;;;4964580;28;20233;-77
2023/03/18 10:50:37;;;;;;;9.80;6.90;;;14.50;99.90;;;;;;4963897;28;20257;-77
2023/03/18 10:53:14;;;;;;;8.27;6.53;;;14.50;99.90;;;;;;4964641;28;20243;-77
2023/03/18 10:55:53;;;;;;;9.27;6.13;;;14.50;99.90;;;;;;4964353;28;20253;-77
2023/03/18 10:58:20;;;;;;;7.87;6.20;;;14.50;99.90;;;;;;4958873;28;20234;-77
2023/03/18 11:00:50;;;;;;;8.47;6.40;;;14.50;99.90;;;;;;4965498;28;20217;-77
2023/03/18 11:03:24;;;;;;;8.40;6.20;;;14.40;99.90;;;;;;4962447;28;20229;-77
2023/03/18 11:05:54;;;;;;;11.27;6.53;;;14.40;99.90;;;;;;4965014;28;20238;-77
2023/03/18 11:08:33;;;;;;;8.93;6.63;;;14.40;99.90;;;;;;4966262;28;20739;-77
2023/03/18 11:11:16;;;;;;;9.90;6.27;;;14.50;99.90;;;;;;4964864;28;20229;-77
2023/03/18 11:13:47;;;;;;;10.20;7.77;;;14.50;99.90;;;;;;4978168;28;20245;-77
2023/03/18 11:16:24;;;;;;;9.27;7.40;;;14.60;99.90;;;;;;4965696;28;20761;-77
2023/03/18 11:18:53;;;;;;;10.20;8.37;;;14.60;99.90;;;;;;4967338;28;20752;-77
2023/03/18 11:21:20;;;;;;;9.50;7.70;;;14.70;99.90;;;;;;4966552;28;20660;-77
2023/03/18 11:24:09;;;;;;;9.87;7.50;;;14.70;99.90;;;;;;4970761;28;20226;-77
2023/03/18 11:26:54;;;;;;;9.30;7.93;;;14.80;99.90;;;;;;4963996;28;20234;-77
2023/03/18 11:29:24;;;;;;;13.27;8.07;;;14.90;99.90;;;;;;4951968;28;20241;-81
2023/03/18 11:31:57;;;;;;;10.07;7.60;;;15.00;99.90;;;;;;4964661;28;20227;-77
2023/03/18 11:34:24;;;;;;;10.80;7.63;;;15.20;99.90;;;;;;4968370;28;21192;-77
2023/03/18 11:37:00;;;;;;;8.63;7.10;;;15.30;99.90;;;;;;4967629;28;20612;-77
2023/03/18 11:39:29;;;;;;;8.50;7.27;;;15.50;99.90;;;;;;4968338;28;20307;-77
2023/03/18 11:41:58;;;;;;;9.77;7.23;;;15.70;99.90;;;;;;4962805;28;20755;-77
2023/03/18 11:44:29;;;;;;;11.27;7.50;;;15.90;99.90;;;;;;4964299;28;21117;-77
2023/03/18 11:47:03;;;;;;;9.20;7.00;;;16.20;99.90;;;;;;4968425;28;20219;-77
2023/03/18 11:49:30;;;;;;;9.77;7.22;;;16.50;99.90;;;;;;4967597;28;20223;-77
2023/03/18 11:52:29;;;;;;;8.90;6.93;;;16.80;99.90;;;;;;4970063;28;20317;-77
2023/03/18 11:55:09;;;;;;;9.68;7.22;;;17.10;99.90;;;;;;4957011;28;20225;-77
2023/03/18 11:57:48;;;;;;;10.98;7.50;;;17.50;99.90;;;;;;4967628;28;20227;-77
2023/03/18 12:00:24;;;;;;;9.88;7.05;;;17.70;99.90;;;;;;4964558;28;20218;-77
2023/03/18 12:03:38;;;;;;;7.95;6.25;;;18.00;99.90;;;;;;4967072;28;20226;-77
2023/03/18 12:06:13;;;;;;;7.75;6.55;;;18.20;99.60;;;;;;4967716;28;20219;-77
2023/03/18 12:08:55;;;;;;;10.48;6.68;;;18.50;99.80;;;;;;4968157;28;20229;-77
2023/03/18 12:11:43;;;;;;;7.97;6.20;;;18.60;99.40;;;;;;4965642;28;20266;-78
2023/03/18 12:14:19;;;;;;;6.57;5.97;;;18.80;98.90;;;;;;4970166;28;20230;-79
2023/03/18 12:16:58;;;;;;;8.00;6.15;;;18.90;97.70;;;;;;4968165;28;20238;-79
2023/03/18 12:19:54;;;;;;;8.88;6.28;;;18.90;97.70;;;;;;4965136;28;20692;-79
2023/03/18 12:22:32;;;;;;;8.23;5.95;;;18.90;97.20;;;;;;4968691;28;20693;-79
2023/03/18 12:25:13;;;;;;;8.65;5.88;;;18.90;97.80;;;;;;4968167;28;20249;-79
2023/03/18 12:27:48;;;;;;;6.20;5.35;;;19.00;97.60;;;;;;4971190;28;20681;-79
2023/03/18 12:30:34;;;;;;;8.77;5.55;;;19.00;96.50;;;;;;4967960;28;20222;-79
2023/03/18 12:33:09;;;;;;;6.30;4.97;;;19.10;97.00;;;;;;4968436;28;20257;-79
2023/03/18 12:35:51;;;;;;;7.35;5.80;;;19.20;97.50;;;;;;4968585;28;20258;-79
2023/03/18 12:38:42;;;;;;;9.07;5.57;;;19.30;96.10;;;;;;4966226;28;20933;-79
2023/03/18 12:41:16;;;;;;;7.07;5.45;;;19.40;95.80;;;;;;4968144;28;20230;-78
2023/03/18 12:44:02;;;;;;;7.05;5.38;;;19.60;95.80;;;;;;4967421;28;20218;-78
2023/03/18 12:46:32;;;;;;;7.38;4.95;;;19.60;95.30;;;;;;4968646;28;20384;-78
2023/03/18 12:49:03;;;;;;;5.65;4.45;;;19.70;95.10;;;;;;4966307;28;20601;-78
2023/03/18 12:51:42;;;;;;;5.93;4.13;;;19.60;95.00;;;;;;4969702;28;20246;-78
2023/03/18 12:54:14;;;;;;;5.65;4.18;;;19.60;94.70;;;;;;4965937;28;20825;-78
2023/03/18 12:56:49;;;;;;;8.80;4.10;;;19.60;94.70;;;;;;4967615;28;20218;-78
2023/03/18 12:59:22;;;;;;;5.55;3.95;;;19.60;94.10;;;;;;4963038;28;20250;-78
2023/03/18 13:02:02;;;;;;;7.63;4.30;;;19.60;94.30;;;;;;4965505;28;20536;-78
2023/03/18 13:04:34;;;;;;;5.63;3.97;;;19.60;94.30;;;;;;4965959;28;20231;-78
2023/03/18 13:07:14;;;;;;;7.15;4.20;;;19.60;94.60;;;;;;4967199;28;20238;-78